Time;durP1;ratioP1;P1;durP2;ratioP2;P2;SDS_P1;SDS_P2;PMS_P1;PMS_P2;Temp;Humidity;BMP_temperature;BMP_pressure;BME280_temperature;BME280_humidity;BME280_pressure;Samples;Min_cycle;Max_cycle;Signal;HPM_P1;HPM_P2
2021/11/07 00:00:38;;;;;;;14.58;7.62;;;;;;;4.28;74.52;100325.48;1696652;82;21011;-64
2021/11/07 00:03:11;;;;;;;17.95;9.03;;;;;;;4.25;74.54;100326.28;1731912;82;21954;-64
2021/11/07 00:05:40;;;;;;;14.63;8.28;;;;;;;4.23;74.60;100328.44;1733746;82;21086;-62
2021/11/07 00:08:31;;;;;;;13.10;8.45;;;;;;;4.19;74.62;100328.69;1731941;82;21058;-63
2021/11/07 00:10:55;;;;;;;13.28;9.05;;;;;;;4.18;74.75;100318.84;1730101;82;21051;-62
2021/11/07 00:13:22;;;;;;;13.03;8.30;;;;;;;4.18;74.89;100318.03;1734071;82;22082;-62
2021/11/07 00:15:47;;;;;;;21.68;9.00;;;;;;;4.18;74.96;100319.40;1732808;82;22589;-63
2021/11/07 00:18:20;;;;;;;17.67;8.83;;;;;;;4.17;74.96;100318.56;1733941;82;21089;-63
2021/11/07 00:20:50;;;;;;;15.25;8.65;;;;;;;4.18;75.00;100319.40;1733600;82;21051;-64
2021/11/07 00:26:00;;;;;;;14.20;8.28;;;;;;;4.18;75.01;100317.47;1702498;82;21071;-62
2021/11/07 00:28:28;;;;;;;17.98;8.90;;;;;;;4.18;75.13;100307.12;1730830;82;21220;-63
2021/11/07 00:31:20;;;;;;;14.85;8.05;;;;;;;4.19;75.18;100304.14;1732004;82;21048;-64
2021/11/07 00:33:27;;;;;;;12.58;8.03;;;;;;;4.21;75.22;100304.70;1729753;82;21063;-63
2021/11/07 00:38:42;;;;;;;14.25;9.05;;;;;;;4.26;75.29;100299.83;1715909;82;21052;-62
2021/11/07 00:44:00;;;;;;;18.70;10.18;;;;;;;4.27;75.41;100283.73;1732927;82;21028;-62
2021/11/07 00:46:27;;;;;;;18.23;9.15;;;;;;;4.26;75.43;100282.90;1731709;82;21091;-63
2021/11/07 00:48:58;;;;;;;17.95;9.95;;;;;;;4.28;75.51;100290.02;1733177;82;20999;-61
2021/11/07 00:53:53;;;;;;;16.30;9.43;;;;;;;4.29;75.53;100275.28;1723649;82;21044;-63
2021/11/07 00:56:43;;;;;;;15.48;8.90;;;;;;;4.31;75.61;100273.95;1723808;82;21036;-63
2021/11/07 01:02:13;;;;;;;19.25;10.40;;;;;;;4.35;75.58;100272.91;1707932;82;21060;-62
2021/11/07 01:04:44;;;;;;;21.77;11.12;;;;;;;4.35;75.62;100274.27;1756939;81;21532;-62
2021/11/07 01:07:11;;;;;;;18.75;11.15;;;;;;;4.34;75.70;100269.34;1729825;82;21152;-63
2021/11/07 01:09:37;;;;;;;18.85;12.10;;;;;;;4.35;75.65;100264.72;1729229;82;20988;-62
2021/11/07 01:12:08;;;;;;;16.10;10.08;;;;;;;4.34;75.56;100252.97;1697595;82;20980;-63
2021/11/07 01:14:36;;;;;;;14.47;9.78;;;;;;;4.33;75.52;100258.13;1727273;82;21000;-61
2021/11/07 01:17:02;;;;;;;18.60;10.40;;;;;;;4.31;75.43;100255.39;1697617;82;21157;-64
2021/11/07 01:19:29;;;;;;;17.95;10.28;;;;;;;4.28;75.38;100251.29;1698654;82;21392;-63
2021/11/07 01:22:02;;;;;;;15.50;9.55;;;;;;;4.24;75.33;100252.88;1723981;82;21688;-63
2021/11/07 01:24:36;;;;;;;15.20;9.18;;;;;;;4.20;75.30;100255.30;1701497;82;21068;-65
2021/11/07 01:27:19;;;;;;;17.27;10.45;;;;;;;4.14;75.33;100253.05;1727159;82;21079;-64
2021/11/07 01:29:42;;;;;;;15.35;9.33;;;;;;;4.09;75.45;100253.03;1725394;82;20984;-64
2021/11/07 01:32:08;;;;;;;14.10;9.08;;;;;;;4.05;75.55;100253.78;1690650;82;21047;-65
2021/11/07 01:34:50;;;;;;;18.62;10.10;;;;;;;4.01;75.71;100246.12;1729803;82;20992;-66
2021/11/07 01:37:14;;;;;;;18.70;10.10;;;;;;;4.00;75.77;100240.94;1724030;82;21008;-64
2021/11/07 01:39:46;;;;;;;18.77;10.88;;;;;;;3.98;75.87;100234.91;1710822;82;21051;-62
2021/11/07 01:42:15;;;;;;;15.20;9.40;;;;;;;3.97;75.82;100230.02;1725445;82;21071;-63
2021/11/07 01:44:52;;;;;;;17.95;9.58;;;;;;;3.96;75.81;100233.00;1726932;82;21540;-64
2021/11/07 01:47:16;;;;;;;15.80;9.28;;;;;;;3.93;75.85;100229.41;1729118;82;21005;-62
2021/11/07 01:49:43;;;;;;;14.53;9.05;;;;;;;3.91;75.91;100224.77;1723441;81;21817;-63
2021/11/07 01:52:12;;;;;;;16.00;10.25;;;;;;;3.89;75.99;100241.36;1724465;82;21000;-63
2021/11/07 01:55:03;;;;;;;16.52;9.48;;;;;;;3.88;76.09;100233.74;1724134;82;21051;-63
2021/11/07 01:57:28;;;;;;;16.95;9.33;;;;;;;3.85;76.16;100241.08;1722264;82;22863;-63
2021/11/07 02:00:01;;;;;;;16.93;10.08;;;;;;;3.84;76.28;100239.41;1725788;82;21040;-64
2021/11/07 02:02:33;;;;;;;15.98;8.93;;;;;;;3.83;76.32;100233.69;1725754;82;21078;-64
2021/11/07 02:05:00;;;;;;;17.82;9.70;;;;;;;3.80;76.23;100231.48;1725267;82;21019;-63
2021/11/07 02:07:26;;;;;;;14.20;8.95;;;;;;;3.77;76.29;100228.72;1724625;82;21090;-65
2021/11/07 02:09:53;;;;;;;16.73;9.45;;;;;;;3.75;76.48;100234.16;1726459;82;21878;-63
2021/11/07 02:12:21;;;;;;;13.48;8.55;;;;;;;3.74;76.61;100233.85;1706136;83;22296;-65
2021/11/07 02:14:47;;;;;;;16.20;9.13;;;;;;;3.75;76.58;100236.32;1717624;82;21050;-63
2021/11/07 02:17:14;;;;;;;16.40;9.03;;;;;;;3.76;76.72;100227.61;1706625;83;21028;-64
2021/11/07 02:19:44;;;;;;;17.07;9.80;;;;;;;3.80;76.71;100227.92;1705771;83;21095;-64
2021/11/07 02:22:11;;;;;;;23.20;11.05;;;;;;;3.78;76.65;100222.73;1720244;82;21115;-64
2021/11/07 02:24:39;;;;;;;16.62;10.30;;;;;;;3.77;76.67;100221.09;1719558;82;21043;-64
2021/11/07 02:27:06;;;;;;;19.55;9.15;;;;;;;3.77;76.75;100225.19;1692706;82;21072;-65
2021/11/07 02:29:33;;;;;;;18.07;9.50;;;;;;;3.76;76.68;100224.35;1679428;83;22016;-64
2021/11/07 02:31:59;;;;;;;16.27;9.03;;;;;;;3.75;76.75;100228.70;1703750;83;21122;-65
2021/11/07 02:34:28;;;;;;;14.03;8.73;;;;;;;3.76;76.80;100225.72;1706263;83;21921;-65
2021/11/07 02:36:56;;;;;;;16.00;8.25;;;;;;;3.77;76.94;100223.83;1691787;82;21044;-64
2021/11/07 02:39:23;;;;;;;16.77;8.28;;;;;;;3.81;76.93;100207.75;1702632;83;21053;-63
2021/11/07 02:41:50;;;;;;;16.80;8.68;;;;;;;3.81;76.88;100218.12;1708467;83;21082;-65
2021/11/07 02:44:35;;;;;;;15.90;8.75;;;;;;;3.82;76.95;100214.30;1705149;83;21094;-65
2021/11/07 02:47:04;;;;;;;16.80;9.38;;;;;;;3.82;76.88;100207.48;1720784;82;21231;-64
2021/11/07 02:49:30;;;;;;;14.90;8.33;;;;;;;3.82;76.93;100217.59;1714427;82;21024;-66
2021/11/07 02:51:57;;;;;;;16.02;8.93;;;;;;;3.80;76.90;100218.38;1752680;80;21131;-63
2021/11/07 02:54:24;;;;;;;18.77;8.80;;;;;;;3.77;76.84;100216.45;1713608;81;21086;-64
2021/11/07 02:56:51;;;;;;;15.10;9.98;;;;;;;3.77;76.93;100210.19;1744998;81;21524;-64
2021/11/07 02:59:25;;;;;;;13.32;7.97;;;;;;;3.76;76.96;100224.35;1745107;81;21176;-64
2021/11/07 03:01:52;;;;;;;;;;;;;;;3.75;76.91;100219.16;1721090;81;21078;-63
2021/11/07 03:04:18;;;;;;;14.18;8.83;;;;;;;3.73;77.01;100213.97;1745244;81;20180;-64
2021/11/07 03:06:46;;;;;;;14.33;8.75;;;;;;;3.73;76.99;100224.04;1746300;81;20972;-64
2021/11/07 03:09:26;;;;;;;14.03;8.98;;;;;;;3.72;77.08;100219.68;1744422;81;21030;-63
2021/11/07 03:11:54;;;;;;;14.68;9.48;;;;;;;3.71;77.00;100222.10;1742579;81;21594;-63
2021/11/07 03:14:36;;;;;;;14.15;9.23;;;;;;;3.70;76.86;100229.45;1744317;81;21030;-64
2021/11/07 03:17:03;;;;;;;17.87;9.63;;;;;;;3.68;76.83;100227.55;1744877;81;21015;-63
2021/11/07 03:19:30;;;;;;;17.32;10.50;;;;;;;3.67;76.87;100226.44;1743550;81;21503;-64
2021/11/07 03:22:01;;;;;;;15.72;9.43;;;;;;;3.66;76.93;100229.70;1744039;81;21011;-64
2021/11/07 03:24:27;;;;;;;13.88;9.38;;;;;;;3.65;77.07;100223.41;1743121;81;21646;-64
2021/11/07 03:26:57;;;;;;;16.07;10.53;;;;;;;3.65;77.06;100226.70;1744419;81;21526;-63
2021/11/07 03:29:32;;;;;;;15.55;9.38;;;;;;;3.66;77.08;100225.61;1746064;81;21507;-63
2021/11/07 03:32:08;;;;;;;16.27;10.05;;;;;;;3.66;77.00;100222.88;1744074;81;20984;-63
2021/11/07 03:34:34;;;;;;;18.92;10.50;;;;;;;3.64;77.15;100227.76;1714842;81;20975;-63
2021/11/07 03:37:04;;;;;;;20.15;10.80;;;;;;;3.65;77.37;100218.52;1719249;81;21551;-63
2021/11/07 03:39:33;;;;;;;16.73;10.78;;;;;;;3.67;77.40;100220.98;1716504;81;20988;-63
2021/11/07 03:42:02;;;;;;;22.27;12.82;;;;;;;3.69;77.47;100212.82;1747188;81;20992;-65
2021/11/07 03:44:29;;;;;;;23.40;12.93;;;;;;;3.69;77.35;100216.08;1746314;81;21024;-62
2021/11/07 03:46:56;;;;;;;19.05;11.65;;;;;;;3.68;77.45;100211.72;1744870;81;21008;-62
2021/11/07 03:49:26;;;;;;;16.15;10.95;;;;;;;3.67;77.42;100219.06;1742204;81;21164;-62
2021/11/07 03:51:53;;;;;;;17.35;10.28;;;;;;;3.65;77.45;100217.95;1739140;81;21721;-62
2021/11/07 03:54:20;;;;;;;17.05;9.18;;;;;;;3.67;77.60;100214.97;1739650;81;21011;-64
2021/11/07 03:56:46;;;;;;;18.02;9.60;;;;;;;3.68;77.68;100211.19;1737460;81;20995;-63
2021/11/07 03:59:14;;;;;;;15.90;9.45;;;;;;;3.72;77.67;100201.96;1739265;81;21481;-64
2021/11/07 04:01:41;;;;;;;18.90;10.05;;;;;;;3.75;77.69;100205.53;1708850;81;21766;-62
2021/11/07 04:04:11;;;;;;;17.15;10.35;;;;;;;3.79;77.69;100206.64;1737481;81;20980;-63
2021/11/07 04:06:37;;;;;;;17.37;9.80;;;;;;;3.80;77.72;100205.58;1737703;81;21591;-63
2021/11/07 04:09:09;;;;;;;17.00;9.35;;;;;;;3.82;77.61;100206.13;1736934;81;21055;-63
2021/11/07 04:11:35;;;;;;;14.45;9.13;;;;;;;3.83;77.72;100207.78;1739193;81;21540;-63
2021/11/07 04:14:06;;;;;;;17.87;10.65;;;;;;;3.85;77.63;100199.34;1705368;81;21894;-63
2021/11/07 04:16:37;;;;;;;18.00;10.48;;;;;;;3.84;77.56;100202.61;1739049;81;21040;-63
2021/11/07 04:19:08;;;;;;;18.05;10.78;;;;;;;3.83;77.56;100195.52;1740471;81;21004;-63
2021/11/07 04:21:37;;;;;;;17.82;10.30;;;;;;;3.78;77.55;100198.20;1739336;81;21077;-63
2021/11/07 04:24:05;;;;;;;17.00;10.38;;;;;;;3.73;77.51;100192.16;1710543;81;21051;-64
2021/11/07 04:26:33;;;;;;;17.20;9.88;;;;;;;3.70;77.62;100190.48;1706747;81;21769;-63
2021/11/07 04:29:01;;;;;;;22.50;12.78;;;;;;;3.66;77.65;100191.53;1708040;81;20991;-62
2021/11/07 04:31:29;;;;;;;255.27;125.92;;;;;;;3.62;77.65;100193.11;1705283;81;21514;-63
2021/11/07 04:33:55;;;;;;;447.48;240.77;;;;;;;3.58;77.73;100186.02;1738748;81;21479;-64
2021/11/07 04:36:23;;;;;;;295.48;162.77;;;;;;;3.54;77.80;100186.23;1700729;81;21047;-63
2021/11/07 04:38:50;;;;;;;247.60;140.15;;;;;;;3.50;77.75;100179.11;1741171;81;21172;-65
2021/11/07 04:41:18;;;;;;;77.42;44.25;;;;;;;3.47;77.91;100181.52;1737445;81;20968;-64
2021/11/07 04:43:47;;;;;;;90.20;47.25;;;;;;;3.44;77.88;100192.94;1704257;81;21063;-63
2021/11/07 04:46:17;;;;;;;93.30;49.25;;;;;;;3.39;77.87;100193.17;1738974;81;21071;-63
2021/11/07 04:48:47;;;;;;;64.62;36.03;;;;;;;3.35;77.93;100207.02;1740458;81;21027;-63
2021/11/07 04:51:14;;;;;;;187.00;97.40;;;;;;;3.31;78.02;100201.77;1730743;80;21889;-63
2021/11/07 04:53:40;;;;;;;298.10;129.03;;;;;;;3.27;78.18;100200.66;1761866;80;21075;-64
2021/11/07 04:56:09;;;;;;;262.98;120.25;;;;;;;3.24;78.25;100208.78;1706180;82;21004;-64
2021/11/07 04:58:36;;;;;;;121.92;56.28;;;;;;;3.20;78.22;100207.66;1744773;81;21016;-63
2021/11/07 05:01:03;;;;;;;73.37;36.75;;;;;;;3.15;78.28;100207.06;1743105;81;21411;-64
2021/11/07 05:03:34;;;;;;;141.20;59.75;;;;;;;3.09;78.40;100205.33;1716373;81;21512;-63
2021/11/07 05:06:02;;;;;;;119.87;50.80;;;;;;;3.08;78.53;100211.03;1745342;81;20981;-64
2021/11/07 05:08:28;;;;;;;93.25;41.83;;;;;;;3.05;78.67;100205.56;1719630;81;21226;-63
2021/11/07 05:10:55;;;;;;;77.35;33.48;;;;;;;3.04;78.75;100212.91;1694283;81;21083;-64
2021/11/07 05:13:23;;;;;;;79.00;37.50;;;;;;;3.05;78.82;100211.02;1745873;81;21035;-63
2021/11/07 05:15:50;;;;;;;56.42;28.90;;;;;;;3.07;78.79;100215.65;1745997;81;21775;-64
2021/11/07 05:18:18;;;;;;;42.43;21.52;;;;;;;3.05;78.67;100220.55;1744649;81;21032;-63
2021/11/07 05:20:46;;;;;;;24.65;13.98;;;;;;;3.04;78.80;100222.44;1743289;81;21090;-63
2021/11/07 05:23:13;;;;;;;22.00;11.93;;;;;;;3.05;78.74;100224.63;1742971;81;21487;-63
2021/11/07 05:25:40;;;;;;;21.60;11.90;;;;;;;3.04;78.86;100217.52;1714615;81;21039;-63
2021/11/07 05:28:07;;;;;;;21.70;13.30;;;;;;;3.06;78.93;100213.18;1746140;81;21124;-63
2021/11/07 05:30:34;;;;;;;24.50;13.15;;;;;;;3.08;78.94;100216.48;1716861;81;21074;-63
2021/11/07 05:33:01;;;;;;;27.90;14.98;;;;;;;3.08;78.95;100221.40;1742977;81;21054;-63
2021/11/07 05:35:29;;;;;;;25.62;13.38;;;;;;;3.09;78.94;100225.76;1743072;81;21062;-63
2021/11/07 05:37:57;;;;;;;24.43;12.73;;;;;;;3.10;78.83;100227.95;1712693;83;21109;-64
2021/11/07 05:40:25;;;;;;;20.55;12.60;;;;;;;3.12;78.93;100227.17;1746215;81;21130;-62
2021/11/07 05:42:52;;;;;;;19.57;12.53;;;;;;;3.15;78.90;100211.15;1743782;81;21511;-63
2021/11/07 05:45:21;;;;;;;23.73;12.82;;;;;;;3.19;78.94;100211.44;1743855;81;21171;-63
2021/11/07 05:47:49;;;;;;;21.80;12.88;;;;;;;3.24;78.94;100209.34;1738887;81;21546;-63
2021/11/07 05:50:16;;;;;;;23.45;13.18;;;;;;;3.29;78.92;100208.04;1743522;80;21031;-62
2021/11/07 05:52:45;;;;;;;21.97;13.43;;;;;;;3.35;78.87;100202.09;1707812;82;21006;-62
2021/11/07 05:55:13;;;;;;;22.15;12.90;;;;;;;3.40;78.83;100199.43;1708435;82;21000;-63
2021/11/07 05:57:42;;;;;;;19.60;13.65;;;;;;;3.47;78.69;100195.14;1738353;82;20992;-63
2021/11/07 06:00:10;;;;;;;23.38;14.28;;;;;;;3.53;78.67;100202.31;1734289;82;21048;-63
2021/11/07 06:02:40;;;;;;;22.17;12.80;;;;;;;3.62;78.59;100219.84;1709745;82;21023;-63
2021/11/07 06:05:08;;;;;;;32.13;15.85;;;;;;;3.71;78.35;100219.38;1734290;81;21198;-63
2021/11/07 06:07:36;;;;;;;34.65;17.35;;;;;;;3.74;78.16;100219.69;1736963;82;21157;-64
2021/11/07 06:10:03;;;;;;;26.12;15.40;;;;;;;3.77;78.04;100222.46;1733764;82;20989;-63
2021/11/07 06:12:33;;;;;;;27.13;14.40;;;;;;;3.81;77.92;100203.66;1729948;82;21026;-63
2021/11/07 06:15:01;;;;;;;25.10;14.65;;;;;;;3.82;77.74;100204.76;1726755;82;21014;-63
2021/11/07 06:17:27;;;;;;;25.45;13.88;;;;;;;3.85;77.77;100215.17;1739176;82;22107;-62
2021/11/07 06:19:54;;;;;;;25.62;13.62;;;;;;;3.89;77.82;100211.36;1715563;82;21064;-63
2021/11/07 06:22:22;;;;;;;24.02;13.60;;;;;;;3.95;77.77;100213.61;1726938;82;21508;-63
2021/11/07 06:24:49;;;;;;;26.10;13.93;;;;;;;4.02;77.72;100207.41;1738876;82;21031;-63
2021/11/07 06:27:15;;;;;;;32.38;15.10;;;;;;;4.10;77.63;100204.73;1734752;82;21023;-64
2021/11/07 06:29:43;;;;;;;29.52;17.60;;;;;;;4.17;77.51;100203.16;1738368;82;21136;-63
2021/11/07 06:32:12;;;;;;;26.00;14.93;;;;;;;4.22;77.35;100195.02;1735019;82;21007;-63
2021/11/07 06:34:38;;;;;;;22.93;13.72;;;;;;;4.26;77.01;100205.70;1734426;82;21084;-65
2021/11/07 06:37:09;;;;;;;25.10;13.25;;;;;;;4.31;77.02;100200.82;1705997;82;21468;-63
2021/11/07 06:39:39;;;;;;;21.23;13.58;;;;;;;4.36;77.10;100213.97;1710855;82;20980;-64
2021/11/07 06:42:06;;;;;;;22.55;14.15;;;;;;;4.43;76.91;100216.47;1734619;81;21072;-62
2021/11/07 06:44:34;;;;;;;25.62;15.15;;;;;;;4.48;76.84;100217.05;1707812;82;21004;-62
2021/11/07 06:47:02;;;;;;;23.10;14.53;;;;;;;4.52;76.53;100220.08;1737282;82;21051;-62
2021/11/07 06:49:30;;;;;;;19.82;12.70;;;;;;;4.53;76.58;100224.44;1734305;82;21078;-65
2021/11/07 06:51:58;;;;;;;20.75;12.95;;;;;;;4.56;76.48;100219.81;1735606;82;21051;-64
2021/11/07 06:54:26;;;;;;;20.25;13.03;;;;;;;4.59;76.52;100212.49;1735318;82;21106;-64
2021/11/07 06:56:54;;;;;;;23.12;13.75;;;;;;;4.67;76.57;100207.07;1736690;82;20981;-62
2021/11/07 06:59:21;;;;;;;25.68;14.85;;;;;;;4.74;76.59;100202.20;1737060;82;21543;-63
2021/11/07 07:01:49;;;;;;;23.50;14.20;;;;;;;4.83;76.51;100192.95;1707683;82;20964;-62
2021/11/07 07:04:19;;;;;;;23.38;13.93;;;;;;;4.92;76.18;100192.73;1735868;82;21031;-62
2021/11/07 07:06:46;;;;;;;23.60;14.38;;;;;;;5.01;75.96;100192.23;1734209;82;21196;-63
2021/11/07 07:09:16;;;;;;;25.12;14.28;;;;;;;5.08;75.70;100175.86;1736277;82;20976;-62
2021/11/07 07:11:47;;;;;;;23.32;13.43;;;;;;;5.18;75.59;100175.09;1736734;82;20992;-63
2021/11/07 07:14:19;;;;;;;22.30;14.05;;;;;;;5.28;75.35;100166.11;1735354;82;21028;-63
2021/11/07 07:19:39;;;;;;;20.77;14.00;;;;;;;5.49;74.98;100164.80;1736866;82;21805;-63
2021/11/07 07:22:12;;;;;;;21.60;13.20;;;;;;;5.59;74.79;100157.99;1705828;82;21039;-63
2021/11/07 07:29:58;;;;;;;27.55;14.53;;;;;;;5.88;73.74;100161.29;1735319;82;21496;-63
2021/11/07 07:35:07;;;;;;;25.00;14.00;;;;;;;6.04;73.15;100142.41;1733762;82;21063;-64
2021/11/07 07:37:34;;;;;;;23.02;12.37;;;;;;;6.13;72.78;100144.08;1732986;82;21067;-63
2021/11/07 07:40:01;;;;;;;24.02;13.95;;;;;;;6.21;72.28;100139.95;1734170;82;20989;-63
2021/11/07 07:42:30;;;;;;;22.95;13.48;;;;;;;6.26;72.25;100135.84;1711464;82;21031;-63
2021/11/07 07:44:57;;;;;;;20.52;12.95;;;;;;;6.36;71.94;100136.94;1737884;82;21136;-63
2021/11/07 07:47:24;;;;;;;24.00;13.35;;;;;;;6.43;71.69;100135.55;1706171;82;20989;-63
2021/11/07 07:49:51;;;;;;;21.15;13.13;;;;;;;6.52;71.27;100139.91;1736481;82;21519;-63
2021/11/07 07:52:21;;;;;;;19.67;12.65;;;;;;;6.60;71.33;100143.19;1740552;81;21500;-63
2021/11/07 07:54:46;;;;;;;21.33;12.10;;;;;;;6.68;70.96;100143.98;1742804;81;21607;-63
2021/11/07 07:57:12;;;;;;;18.07;11.55;;;;;;;6.78;70.97;100145.86;1751268;81;21493;-65
2021/11/07 07:59:41;;;;;;;17.95;11.55;;;;;;;6.89;70.86;100152.94;1740741;81;21067;-63
2021/11/07 08:02:08;;;;;;;19.17;11.85;;;;;;;7.02;70.51;100146.59;1757795;81;21056;-63
2021/11/07 08:04:34;;;;;;;21.30;12.33;;;;;;;7.13;69.99;100146.02;1737351;82;21071;-63
2021/11/07 08:07:01;;;;;;;21.17;12.78;;;;;;;7.21;69.57;100139.11;1721448;82;21012;-63
2021/11/07 08:09:27;;;;;;;16.35;11.38;;;;;;;7.26;68.91;100145.39;1746841;82;21107;-63
2021/11/07 08:11:56;;;;;;;18.77;11.03;;;;;;;7.33;68.99;100142.88;1744627;81;21027;-63
2021/11/07 08:14:25;;;;;;;19.23;11.75;;;;;;;7.39;68.94;100133.52;1702083;82;21551;-63
2021/11/07 08:16:53;;;;;;;21.55;11.22;;;;;;;7.49;69.01;100127.97;1730675;82;21047;-63
2021/11/07 08:19:23;;;;;;;17.02;11.08;;;;;;;7.62;68.81;100125.16;1735679;82;21000;-63
2021/11/07 08:21:52;;;;;;;16.93;11.00;;;;;;;7.77;68.69;100119.27;1735919;82;21853;-62
2021/11/07 08:24:19;;;;;;;18.55;11.30;;;;;;;7.91;68.42;100110.67;1731516;80;21047;-62
2021/11/07 08:26:46;;;;;;;20.62;10.63;;;;;;;8.05;67.88;100118.23;1704944;82;21038;-63
2021/11/07 08:29:15;;;;;;;17.32;10.43;;;;;;;8.15;67.45;100108.50;1708926;82;21567;-62
2021/11/07 08:31:42;;;;;;;21.57;10.82;;;;;;;8.22;67.05;100108.16;1707045;82;21575;-63
2021/11/07 08:34:11;;;;;;;18.57;11.08;;;;;;;8.28;67.05;100098.78;1705995;82;21077;-62
2021/11/07 08:36:49;;;;;;;16.65;10.35;;;;;;;8.39;66.49;100100.85;1731894;82;21484;-63
2021/11/07 08:40:11;;;;;;;20.77;10.70;;;;;;;8.47;65.97;100092.55;1730954;82;21079;-62
2021/11/07 08:41:59;;;;;;;16.57;10.48;;;;;;;8.55;65.70;100097.14;1687718;82;20992;-62
2021/11/07 09:01:17;;;;;;;15.40;10.23;;;;;;;8.43;65.06;100080.50;1712144;81;22276;-63
2021/11/07 09:04:04;;;;;;;17.10;9.78;;;;;;;8.48;65.33;100074.13;1736432;81;21048;-63
2021/11/07 09:06:40;;;;;;;21.25;11.53;;;;;;;8.61;65.58;100065.23;1738817;81;21008;-62
2021/11/07 09:08:55;;;;;;;18.20;10.18;;;;;;;8.75;64.97;100059.02;1732881;81;21958;-63
2021/11/07 09:11:22;;;;;;;17.15;9.95;;;;;;;8.79;64.24;100060.05;1739314;81;21012;-62
2021/11/07 09:13:48;;;;;;;19.55;10.13;;;;;;;8.75;64.00;100041.95;1715903;81;21860;-63
2021/11/07 09:16:16;;;;;;;13.75;9.08;;;;;;;8.74;64.09;100045.83;1738749;81;21036;-63
2021/11/07 09:18:44;;;;;;;17.70;10.63;;;;;;;8.74;64.02;100047.75;1739778;81;21052;-63
2021/11/07 09:21:21;;;;;;;16.97;9.28;;;;;;;8.74;63.93;100049.95;1737410;81;21629;-63
2021/11/07 09:23:52;;;;;;;17.45;10.40;;;;;;;8.74;63.75;100051.32;1735740;81;21024;-62
2021/11/07 09:26:25;;;;;;;15.50;10.25;;;;;;;8.76;63.97;100046.91;1736244;81;21145;-63
2021/11/07 09:29:02;;;;;;;16.93;10.40;;;;;;;8.82;63.96;100042.17;1707562;81;21012;-64
2021/11/07 09:31:34;;;;;;;18.23;9.95;;;;;;;8.89;64.03;100045.34;1758165;80;21088;-61
2021/11/07 09:36:35;;;;;;;14.38;9.38;;;;;;;9.00;63.60;100039.16;1728176;82;21047;-63
2021/11/07 09:44:16;;;;;;;18.10;9.63;;;;;;;9.13;62.55;100008.73;1740828;82;21101;-63
2021/11/07 09:46:49;;;;;;;14.95;9.20;;;;;;;9.14;62.71;100009.00;1734572;81;21066;-64
2021/11/07 09:49:18;;;;;;;16.05;9.95;;;;;;;9.21;62.48;99998.42;1732888;82;21019;-63
2021/11/07 09:52:00;;;;;;;15.30;10.28;;;;;;;9.34;62.40;99986.41;1717344;82;21048;-63
2021/11/07 09:54:21;;;;;;;15.70;8.73;;;;;;;9.48;62.03;99985.87;1718725;81;21040;-62
2021/11/07 09:56:55;;;;;;;13.85;9.48;;;;;;;9.62;61.54;99975.50;1753288;81;21031;-62
2021/11/07 09:59:17;;;;;;;12.63;8.80;;;;;;;9.74;61.03;99975.81;1733450;81;21035;-63
2021/11/07 10:01:50;;;;;;;13.75;8.98;;;;;;;9.82;60.68;99963.30;1737577;81;20980;-62
2021/11/07 10:04:18;;;;;;;13.58;8.65;;;;;;;9.90;60.32;99963.14;1744274;81;21750;-62
2021/11/07 10:06:48;;;;;;;17.02;9.33;;;;;;;9.96;60.11;99955.61;1717775;81;21587;-62
2021/11/07 10:12:11;;;;;;;17.25;9.55;;;;;;;10.14;59.64;99962.13;1855236;77;21948;-62
2021/11/07 10:14:50;;;;;;;14.00;8.30;;;;;;;10.18;59.38;99968.67;1792727;78;20971;-62
2021/11/07 10:17:24;;;;;;;16.75;8.80;;;;;;;10.28;59.16;99961.30;1819104;78;21148;-62
2021/11/07 10:22:59;;;;;;;16.30;9.43;;;;;;;10.39;57.89;99964.09;1811858;78;21003;-62
2021/11/07 10:25:42;;;;;;;13.65;9.23;;;;;;;10.37;57.58;99955.34;1822183;78;21519;-62
2021/11/07 10:28:28;;;;;;;17.50;9.98;;;;;;;10.35;57.89;99949.32;1822684;78;20951;-62
2021/11/07 10:31:25;;;;;;;11.25;8.83;;;;;;;10.43;58.29;99951.90;1819912;78;21294;-62
2021/11/07 10:39:28;;;;;;;13.88;8.93;;;;;;;10.62;56.56;99940.78;1772864;80;21071;-63
2021/11/07 10:47:33;;;;;;;13.72;7.65;;;;;;;10.61;55.10;99942.47;1770749;80;21044;-63
2021/11/07 10:52:46;;;;;;;16.17;9.70;;;;;;;10.66;55.09;99916.97;1772022;80;21071;-63
2021/11/07 10:55:20;;;;;;;16.60;10.40;;;;;;;10.71;55.47;99908.58;1780193;80;21028;-62
2021/11/07 10:57:53;;;;;;;16.07;8.58;;;;;;;10.82;55.67;99900.89;1745243;81;22020;-63
2021/11/07 11:00:47;;;;;;;15.35;9.68;;;;;;;10.89;55.16;99889.44;1769782;80;21036;-62
2021/11/07 11:03:18;;;;;;;16.42;10.63;;;;;;;10.92;54.80;99887.98;1743816;80;21039;-62
2021/11/07 11:08:36;;;;;;;17.98;11.18;;;;;;;10.98;54.79;99885.37;1726661;83;21257;-62
2021/11/07 11:13:52;;;;;;;16.80;10.75;;;;;;;11.03;55.03;99906.48;1721110;83;21016;-63
2021/11/07 11:17:20;;;;;;;21.75;11.28;;;;;;;10.92;55.27;99897.08;1789037;80;21559;-62
2021/11/07 11:19:37;;;;;;;18.32;11.18;;;;;;;10.80;55.32;99900.94;1752395;80;21089;-62
2021/11/07 11:27:32;;;;;;;19.10;12.03;;;;;;;10.32;56.27;99898.41;1775873;78;21071;-62
2021/11/07 11:30:03;;;;;;;26.25;14.87;;;;;;;10.24;56.51;99881.23;1766007;80;21083;-62
2021/11/07 11:35:08;;;;;;;15.58;9.65;;;;;;;10.06;57.21;99858.23;1740254;82;21512;-62
2021/11/07 11:43:12;;;;;;;17.67;9.30;;;;;;;9.95;57.75;99857.62;1755338;80;20991;-63
2021/11/07 11:45:41;;;;;;;14.78;9.95;;;;;;;9.91;57.73;99840.90;1752439;80;20992;-61
2021/11/07 11:48:58;;;;;;;14.40;9.08;;;;;;;9.90;57.80;99843.41;1783665;80;21543;-62
2021/11/07 11:54:01;;;;;;;14.80;10.03;;;;;;;9.90;58.23;99829.64;1693113;82;21047;-64
2021/11/07 11:59:35;;;;;;;16.67;11.80;;;;;;;9.92;58.38;99836.22;1784082;80;21004;-62
2021/11/07 12:02:15;;;;;;;16.75;10.65;;;;;;;9.94;58.36;99835.36;1746382;82;21556;-63
2021/11/07 12:05:00;;;;;;;19.35;11.18;;;;;;;9.95;58.69;99832.84;1777042;78;21131;-63
2021/11/07 12:07:34;;;;;;;19.40;10.78;;;;;;;9.92;58.84;99831.53;1782531;80;21011;-63
2021/11/07 12:09:59;;;;;;;18.12;11.55;;;;;;;9.91;58.91;99829.89;1752007;80;21121;-63
2021/11/07 12:12:49;;;;;;;17.55;11.33;;;;;;;9.90;59.00;99822.77;1788700;80;21039;-63
2021/11/07 12:15:14;;;;;;;15.15;10.65;;;;;;;9.89;59.22;99816.19;1786785;80;21043;-64
2021/11/07 12:17:41;;;;;;;21.42;12.55;;;;;;;9.85;59.52;99813.23;1782907;80;21219;-63
2021/11/07 12:20:29;;;;;;;29.15;15.35;;;;;;;9.81;59.73;99810.28;1784693;80;21030;-63
2021/11/07 12:23:17;;;;;;;31.12;18.82;;;;;;;9.76;60.10;99812.34;1784248;78;21508;-61
2021/11/07 12:25:45;;;;;;;25.45;15.10;;;;;;;9.71;60.42;99803.06;1779062;80;21115;-62
2021/11/07 12:28:13;;;;;;;28.60;15.72;;;;;;;9.68;60.49;99805.06;1778185;80;21500;-62
2021/11/07 12:30:42;;;;;;;31.95;17.12;;;;;;;9.65;60.63;99798.80;1787269;80;21064;-64
2021/11/07 12:33:17;;;;;;;38.65;18.73;;;;;;;9.62;60.57;99793.33;1788561;80;21074;-60
2021/11/07 12:41:24;;;;;;;15.78;10.90;;;;;;;9.46;60.50;99779.09;1789055;80;21053;-63
2021/11/07 12:44:00;;;;;;;17.60;10.93;;;;;;;9.39;60.15;99788.31;1784778;78;21028;-63
2021/11/07 12:46:52;;;;;;;17.57;10.63;;;;;;;9.32;60.17;99785.14;1780491;80;21091;-64
2021/11/07 12:49:22;;;;;;;21.17;11.18;;;;;;;9.24;60.39;99775.13;1787522;80;20996;-63
2021/11/07 12:51:54;;;;;;;20.77;11.80;;;;;;;9.22;60.48;99764.98;1785857;80;20984;-63
2021/11/07 12:54:30;;;;;;;20.12;12.98;;;;;;;9.22;60.76;99760.04;1783031;80;21052;-62
2021/11/07 12:57:11;;;;;;;21.75;12.68;;;;;;;9.22;61.11;99757.30;1757625;80;21577;-63
2021/11/07 12:59:50;;;;;;;21.20;11.38;;;;;;;9.22;61.35;99765.54;1782642;80;21059;-63
2021/11/07 13:02:33;;;;;;;52.62;32.08;;;;;;;9.20;61.60;99763.09;1779884;80;21055;-63
2021/11/07 13:05:19;;;;;;;21.93;13.80;;;;;;;9.18;61.82;99760.41;1786049;80;20976;-62
2021/11/07 13:10:25;;;;;;;35.10;20.57;;;;;;;9.06;62.13;99754.04;1778813;80;21092;-63
2021/11/07 13:12:55;;;;;;;31.33;17.17;;;;;;;9.01;62.23;99754.93;1776237;80;21039;-63
2021/11/07 13:26:54;;;;;;;20.12;12.25;;;;;;;8.73;63.33;99742.53;1705659;83;20981;-64
2021/11/07 13:29:29;;;;;;;25.12;13.08;;;;;;;8.73;63.70;99742.53;1728448;82;20997;-63